Los Gatos, CA

9:06 AM PST on February 14, 2016 (GMT -0800)
Summit RD/Lexington Hills | | Change Station
CLOSE
Current Station
Personal Weather Station
Location: Los Gatos, CA
Elevation: 1529 ft
Nearby Weather Stations

Elev 1529 ft 37.14 °N, 121.96 °W | Updated 12 seconds ago

Clear
Clear
56.7 °F
Feels Like 56.7 °F
N
0.0
Wind Variable Wind from North
Gusts 0.0 mph

Today
High -- | Low -- °F
--% Chance of Precip.
Yesterday
High -- | Low -- °F
Precip. -- in
Pressure 30.32 in
Visibility 10.0 miles
Clouds Scattered Clouds 7000 ft
Dew Point 40 °F
Humidity 54%
Rainfall 0.00 in
Snow Depth Not available.
6:57 AM 5:46 PM
Waxing Crescent, 43% visible
METAR KRHV 141547Z 00000KT 10SM SCT070 08/07 A3032
Pressure 30.32 in
Visibility 10.0 miles
Clouds Scattered Clouds 7000 ft
Dew Point 40 °F
Humidity 54%
Rainfall 0.00 in
Snow Depth Not available.
6:57 AM 5:46 PM
Waxing Crescent, 43% visible
METAR KRHV 141547Z 00000KT 10SM SCT070 08/07 A3032

10-Day Weather Forecast

Almanac

Astronomy

Feb. 14, 2016 Rise Set
Actual Time
Civil Twilight
Nautical Twilight
Astronomical Twilight
Moon
Length of Visible Light
Length of Day
Tomorrow will be .
, % of the Moon is Illuminated

Today's Extremes

State Highs State Lows

Community

WunderPhotos

Upload Photos

1,892,849 photos uploaded!

WunderBlog® & News

Nearby

Air Quality

  Air Quality AQ Index Pollutant
Not available.

Snow Depth

Station Depth Elevation

Earthquake Activity

City Distance Mag. Time & Date
Minimum magnitude displayed is 2.5.

Coastal Water Temperatures

Place Temperature

Stations

Nearby Weather Stations

Station Location Temp. Windchill Dew Point Humidity Wind Precip. Elev Updated Type
                   

Watches & Warnings

There are currently no watches in effect.